Frey Ranch - Fallon, Nevada Weather observations

Data are for observation ending at time listed.
 Day   Time    Ave.   Ave.  Ave.  Vector   Max.   Stn.    Total    Solar   Ave.  
  of    of     Air    Rel.  Wind   Wind    Wind   Baro.  Precip.   Rad.    Soil  
Year   Day     Temp.  Hum.  Speed  Dir.    Gust   Pres.                    Temp. 
2015   (PST)    F      %     mph   deg.    mph     mb.     in.     W/m2     F   
------------------------------------------------------------------------------
 143   13:50   58.0    76    2.6     7      6.2   999.0    0.01     154    999.0
 143   14:00   57.7    76    1.8   340      4.6   999.0    0.00     130    999.0
 143   14:10   57.9    74    1.4   316      3.8   999.0    0.00     125    999.0
 143   14:20   58.0    74    5.5   269     10.6   999.0    0.01     150    999.0
 143   14:30   56.6    79    7.2   237     11.5   999.0    0.00     185    999.0
 143   14:40   56.6    79    5.5   236      8.4   999.0    0.00     148    999.0
 143   14:50   56.3    77    6.0   244      7.9   999.0    0.00     122    999.0
 143   15:00   56.0    78    7.0   225      9.5   999.0    0.00      80    999.0
 143   15:10   55.4    81    7.4   215     10.1   999.0    0.00      90    999.0
 143   15:20   54.9    82    8.6   243     13.2   999.0    0.14      40    999.0
 143   15:30   53.4    86    8.9   246     11.9   999.0    0.02      53    999.0
 143   15:40   54.0    85    8.8   242     11.6   999.0    0.00      73    999.0
 143   15:50   54.3    83    8.6   237     11.3   999.0    0.00      88    999.0
 143   16:00   54.8    81    8.6   242     11.9   999.0    0.00     148    999.0
 143   16:10   55.0    80    9.4   247     12.8   999.0    0.00     183    999.0
 143   16:20   55.4    80    9.1   246     14.0   999.0    0.00     232    999.0
 143   16:30   55.9    79    9.6   243     13.1   999.0    0.00     141    999.0
 143   16:40   55.3    78    9.1   250     12.4   999.0    0.00      71    999.0
 143   16:50   55.2    78    7.9   248     11.6   999.0    0.00     134    999.0
 143   17:00   55.7    78    7.6   250     10.4   999.0    0.00     142    999.0
 143   17:10   56.0    76    8.1   249     11.3   999.0    0.00     138    999.0
 143   17:20   56.3    76    8.3   250     11.3   999.0    0.00     122    999.0
 143   17:30   55.7    78    6.5   256     10.1   999.0    0.00      44    999.0
 143   17:40   55.0    80    5.9   258      8.2   999.0    0.00      18    999.0
 143   17:50   54.5    82    5.4   260      7.3   999.0    0.00      10    999.0
 143   18:00   54.1    83    4.8   266      7.0   999.0    0.00       7    999.0
 143   18:10   54.2    82    7.0   265     11.4   999.0    0.00       4    999.0
 143   18:20   54.2    80    6.5   256      9.5   999.0    0.00       1    999.0
 143   18:30   54.0    81    6.3   256      9.0   999.0    0.00       0    999.0
 143   18:40   53.9    81    6.6   250      9.2   999.0    0.00       0    999.0
 143   18:50   53.7    81    5.4   249      7.6   999.0    0.00       0    999.0
 143   19:00   53.5    82    4.9   263      6.8   999.0    0.00       0    999.0
 143   19:10   53.5    81    5.7   257      7.4   999.0    0.00       0    999.0
 143   19:20   53.4    81    5.0   259      7.2   999.0    0.00       0    999.0
 143   19:30   53.3    81    5.3   257      6.5   999.0    0.00       0    999.0
 143   19:40   53.2    81    5.2   257      7.0   999.0    0.00       0    999.0
 143   19:50   53.0    82    5.0   258      6.3   999.0    0.00       0    999.0
 143   20:00   52.9    81    4.4   264      6.2   999.0    0.00       0    999.0
 143   20:10   52.8    81    4.2   260      6.0   999.0    0.00       0    999.0
 143   20:20   52.7    81    4.2   256      5.8   999.0    0.00       0    999.0
 143   20:30   52.6    81    4.4   263      5.9   999.0    0.00       0    999.0
 143   20:40   52.7    81    4.4   265      5.8   999.0    0.00       0    999.0
 143   20:50   53.0    80    4.6   261      6.4   999.0    0.00       0    999.0
 143   21:00   53.2    80    4.7   254      6.2   999.0    0.00       0    999.0
 143   21:10   53.3    80    4.1   247      5.8   999.0    0.00       0    999.0
 143   21:20   53.4    80    2.9   207      4.5   999.0    0.00       0    999.0
 143   21:30   53.1    81    2.0   181      2.9   999.0    0.00       0    999.0
 143   21:40   52.6    82    1.3   183      2.5   999.0    0.00       0    999.0
 143   21:50   52.4    82    1.9   152      3.4   999.0    0.00       0    999.0
 143   22:00   52.0    82    2.9   130      3.7   999.0    0.00       0    999.0
 143   22:10   52.2    82    2.3   162      3.0   999.0    0.00       0    999.0
 143   22:20   52.4    81    2.8   213      3.8   999.0    0.00       0    999.0
 143   22:30   52.4    80    3.2   222      4.0   999.0    0.00       0    999.0
 143   22:40   52.2    81    2.9   229      3.8   999.0    0.00       0    999.0
 143   22:50   52.0    82    2.4   201      3.0   999.0    0.00       0    999.0
 143   23:00   51.7    82    2.8   162      3.7   999.0    0.00       0    999.0
 143   23:10   51.2    83    2.4   139      3.0   999.0    0.00       0    999.0
 143   23:20   50.6    83    2.1   129      3.3   999.0    0.00       0    999.0
 143   23:30   49.8    84    1.8   142      2.7   999.0    0.00       0    999.0
 143   23:40   49.6    84    1.2   161      2.7   999.0    0.00       0    999.0
 143   23:50   49.8    85    0.4   210      1.9   999.0    0.00       0    999.0
 144    0:00   50.0    85    1.1   212      2.3   999.0    0.00       0    999.0
 144    0:10   50.1    85    1.0   237      2.0   999.0    0.00       0    999.0
 144    0:20   50.0    85    2.0   245      2.8   999.0    0.00       0    999.0
 144    0:30   50.1    85    2.4   241      3.6   999.0    0.00       0    999.0
 144    0:40   50.4    85    0.5   235      2.0   999.0    0.00       0    999.0
 144    0:50   50.4    85    1.4   187      2.6   999.0    0.00       0    999.0
 144    1:00   50.5    85    2.5   196      3.7   999.0    0.00       0    999.0
 144    1:10   50.7    85    2.0   211      2.8   999.0    0.00       0    999.0
 144    1:20   50.8    86    1.1   217      3.0   999.0    0.00       0    999.0
 144    1:30   51.0    86    1.5   124      2.6   999.0    0.00       0    999.0
 144    1:40   50.9    86    2.3   140      3.1   999.0    0.00       0    999.0
 144    1:50   51.5    86    3.0   191      4.0   999.0    0.00       0    999.0
 144    2:00   52.2    84    4.1   231      5.6   999.0    0.00       0    999.0
 144    2:10   52.6    82    3.6   241      5.2   999.0    0.00       0    999.0
 144    2:20   52.5    82    3.3   254      4.7   999.0    0.00       0    999.0
 144    2:30   52.5    82    3.6   264      4.7   999.0    0.00       0    999.0
 144    2:40   52.4    82    3.5   256      4.5   999.0    0.00       0    999.0
 144    2:50   52.4    83    3.2   261      4.3   999.0    0.00       0    999.0
 144    3:00   52.5    82    3.2   273      4.3   999.0    0.00       0    999.0
 144    3:10   52.5    83    3.4   267      4.5   999.0    0.00       0    999.0
 144    3:20   52.1    83    2.8   267      3.9   999.0    0.00       0    999.0
 144    3:30   51.5    84    2.7   260      3.3   999.0    0.00       1    999.0
 144    3:40   50.9    84    2.1   267      3.3   999.0    0.00       4    999.0
 144    3:50   50.5    84    1.5   274      2.2   999.0    0.00       7    999.0
 144    4:00   50.0    85    2.2   269      2.8   999.0    0.00      15    999.0
 144    4:10   50.2    86    1.2   250      2.7   999.0    0.00      51    999.0
 144    4:20   52.4    84    0.8   256      2.0   999.0    0.00      78    999.0
 144    4:30   53.5    82    0.9   275      1.7   999.0    0.00     103    999.0
 144    4:40   55.2    79    0.4   262      1.9   999.0    0.00     140    999.0
 144    4:50   55.7    77    1.2   250      2.2   999.0    0.00     171    999.0
 144    5:00   55.5    77    2.3   283      3.3   999.0    0.00      85    999.0
 144    5:10   55.2    78    1.9   280      3.1   999.0    0.00     117    999.0
 144    5:20   55.7    77    2.3   267      3.9   999.0    0.00     126    999.0
 144    5:30   56.1    76    2.5   270      3.9   999.0    0.00     129    999.0
 144    5:40   56.7    75    3.9   273      7.3   999.0    0.00     132    999.0
 144    5:50   56.8    74    5.3   268      8.1   999.0    0.00     148    999.0
 144    6:00   56.8    73    5.6   271      7.8   999.0    0.00     187    999.0
 144    6:10   57.2    72    4.9   265      7.8   999.0    0.00     193    999.0
 144    6:20   57.8    72    4.6   258      6.8   999.0    0.00     309    999.0
 144    6:30   58.8    68    4.2   278      6.7   999.0    0.00     330    999.0
 144    6:40   59.5    66    5.6   292      9.9   999.0    0.00     363    999.0
 144    6:50   60.3    63    4.6   293      8.5   999.0    0.00     520    999.0
 144    7:00   61.4    61    4.4   315      9.7   999.0    0.00     604    999.0
 144    7:10   61.8    60    3.8   304      7.2   999.0    0.00     618    999.0
 144    7:20   62.1    60    4.4   324      7.6   999.0    0.00     643    999.0
 144    7:30   62.0    60    3.5   303      8.3   999.0    0.00     681    999.0
 144    7:40   63.1    56    3.5   314      9.6   999.0    0.00     685    999.0
 144    7:50   63.1    58    4.8   283      7.5   999.0    0.00     706    999.0
 144    8:00   63.0    57    4.9   297      7.5   999.0    0.00     728    999.0
 144    8:10   63.5    55    3.4   324      7.0   999.0    0.00     754    999.0
 144    8:20   64.5    54    2.8   305      5.8   999.0    0.00     784    999.0
 144    8:30   65.2    53    3.9   282      8.1   999.0    0.00     832    999.0
 144    8:40   64.6    53    4.4   284      8.4   999.0    0.00     847    999.0
 144    8:50   64.7    53    4.7   268      8.6   999.0    0.00     883    999.0
 144    9:00   65.6    51    3.6   309      8.7   999.0    0.00     934    999.0
 144    9:10   66.6    50    2.8   242      8.0   999.0    0.00    1029    999.0
 144    9:20   66.8    52    4.7   305      8.6   999.0    0.00     759    999.0
 144    9:30   66.3    52    4.7   286      9.1   999.0    0.00     994    999.0
 144    9:40   66.3    50    4.4   255      7.6   999.0    0.00     868    999.0
 144    9:50   67.3    48    2.4   267      6.1   999.0    0.00     930    999.0
 144   10:00   67.3    47    3.5   326      8.0   999.0    0.00    1018    999.0
 144   10:10   67.4    48    4.8   235      9.9   999.0    0.00    1016    999.0
 144   10:20   67.9    46    2.6   208      8.0   999.0    0.00    1018    999.0
 144   10:30   68.1    47    3.9   268      9.2   999.0    0.00    1005    999.0
 144   10:40   68.5    47    4.5   284     11.0   999.0    0.00    1009    999.0
 144   10:50   68.5    47    4.7   229      8.2   999.0    0.00    1002    999.0
 144   11:00   69.0    46    3.3   284      7.8   999.0    0.00     992    999.0
 144   11:10   69.7    44    4.5   277     10.3   999.0    0.00    1003    999.0
 144   11:20   69.6    41    3.6   327      8.0   999.0    0.00     996    999.0
 144   11:30   70.1    43    4.9   309     10.2   999.0    0.00     952    999.0
 144   11:40   70.9    40    3.1   178      6.0   999.0    0.00     716    999.0
 144   11:50   70.4    42    4.4   204      8.5   999.0    0.00     991    999.0
 144   12:00   71.2    41    4.0   146      7.8   999.0    0.00    1005    999.0
 144   12:10   72.2    40    2.5   100      7.0   999.0    0.00     883    999.0
 144   12:20   72.1    39    3.0   129      7.1   999.0    0.00    1025    999.0
 144   12:30   72.7    37    2.9   225      8.1   999.0    0.00    1114    999.0
 144   12:40   71.8    40    4.5   352     10.7   999.0    0.00     268    999.0
 144   12:50   69.0    46    4.7    11      9.9   999.0    0.00     153    999.0
 144   13:00   66.7    54    4.9    16     13.0   999.0    0.00     233    999.0
 144   13:10   64.9    57    5.2    10     11.0   999.0    0.00     273    999.0
 144   13:20   66.4    53    3.5    19     12.7   999.0    0.00     378    999.0
 144   13:30   67.1    50    4.2    63     13.7   999.0    0.00     651    999.0
 144   13:40   68.7    47   11.5    75     17.5   999.0    0.00     865    999.0

Return to Frey Ranch - Fallon, Nevada graphs page.


Western Regional Climate Center,wrcc@dri.edu